Time;durP1;ratioP1;P1;durP2;ratioP2;P2;SDS_P1;SDS_P2;PMS_P1;PMS_P2;Temp;Humidity;BMP_temperature;BMP_pressure;BME280_temperature;BME280_humidity;BME280_pressure;Samples;Min_cycle;Max_cycle;Signal;HPM_P1;HPM_P2
2021/01/27 00:00:14;;;;;;;16.23;6.28;;;7.30;51.70;;;;;;6170329;28;20075;-75
2021/01/27 00:03:15;;;;;;;11.38;5.85;;;7.30;51.70;;;;;;6191846;28;20038;-75
2021/01/27 00:06:16;;;;;;;18.27;6.97;;;7.30;51.80;;;;;;6198067;28;20030;-74
2021/01/27 00:09:17;;;;;;;10.88;5.72;;;7.30;51.70;;;;;;6192958;28;20531;-74
2021/01/27 00:12:18;;;;;;;13.43;5.80;;;7.30;51.70;;;;;;6179966;28;20064;-74
2021/01/27 00:15:31;;;;;;;12.82;5.18;;;7.30;51.60;;;;;;6177505;28;20132;-76
2021/01/27 00:18:32;;;;;;;14.82;6.30;;;7.30;51.50;;;;;;6196406;28;20062;-75
2021/01/27 00:21:33;;;;;;;15.40;5.55;;;7.30;51.50;;;;;;6194204;28;20042;-76
2021/01/27 00:24:35;;;;;;;14.43;5.25;;;7.20;51.40;;;;;;6193115;28;20084;-75
2021/01/27 00:27:35;;;;;;;15.52;5.75;;;7.30;51.40;;;;;;6198019;28;20035;-76
2021/01/27 00:30:40;;;;;;;12.23;5.30;;;7.30;51.00;;;;;;6196906;28;20037;-74
2021/01/27 00:33:40;;;;;;;11.45;5.15;;;7.30;50.80;;;;;;6193742;28;20064;-74
2021/01/27 00:36:41;;;;;;;13.40;5.18;;;7.30;50.70;;;;;;6190757;28;20031;-74
2021/01/27 00:39:43;;;;;;;10.52;4.35;;;7.30;50.70;;;;;;6196687;28;20456;-74
2021/01/27 00:42:43;;;;;;;12.98;5.50;;;7.30;50.60;;;;;;6194405;28;20037;-75
2021/01/27 00:45:44;;;;;;;11.05;5.35;;;7.30;50.70;;;;;;6193889;28;20127;-75
2021/01/27 00:48:48;;;;;;;13.43;5.43;;;7.30;50.60;;;;;;6192810;28;20026;-76
2021/01/27 00:51:49;;;;;;;18.67;6.72;;;7.30;50.70;;;;;;6195500;28;20042;-74
2021/01/27 00:54:50;;;;;;;12.52;5.13;;;7.30;50.70;;;;;;6174598;28;20088;-74
2021/01/27 00:57:51;;;;;;;13.80;5.38;;;7.30;50.80;;;;;;6195766;28;20464;-74
2021/01/27 01:00:52;;;;;;;10.05;4.85;;;7.20;50.90;;;;;;6193032;28;20049;-74
2021/01/27 01:03:59;;;;;;;10.45;4.72;;;7.20;51.10;;;;;;6192462;28;20038;-74
2021/01/27 01:07:00;;;;;;;13.18;5.32;;;7.10;51.20;;;;;;6194754;28;20038;-73
2021/01/27 01:10:02;;;;;;;14.70;5.57;;;7.10;51.40;;;;;;6192010;28;20111;-75
2021/01/27 01:13:05;;;;;;;17.30;6.35;;;7.10;51.50;;;;;;6179887;28;20141;-75
2021/01/27 01:16:06;;;;;;;14.02;5.25;;;7.00;51.50;;;;;;6193802;28;20038;-74
2021/01/27 01:19:09;;;;;;;17.33;5.97;;;7.10;51.70;;;;;;6178196;28;20473;-74
2021/01/27 01:22:09;;;;;;;14.20;5.88;;;7.10;51.80;;;;;;6195511;28;20038;-73
2021/01/27 01:25:11;;;;;;;17.23;6.63;;;7.10;51.70;;;;;;6195261;28;20034;-74
2021/01/27 01:28:12;;;;;;;13.40;5.82;;;7.10;51.80;;;;;;6197529;28;20062;-75
2021/01/27 01:31:13;;;;;;;13.70;6.72;;;7.10;51.80;;;;;;6193611;28;20044;-75
2021/01/27 01:34:14;;;;;;;14.27;7.30;;;7.10;51.80;;;;;;6177229;28;20036;-74
2021/01/27 01:37:15;;;;;;;15.52;7.03;;;7.10;52.00;;;;;;6196486;28;20129;-75
2021/01/27 01:40:24;;;;;;;14.10;5.47;;;7.10;52.00;;;;;;6178936;28;20062;-76
2021/01/27 01:43:29;;;;;;;14.80;6.03;;;7.10;52.00;;;;;;6194677;28;20049;-74
2021/01/27 01:46:30;;;;;;;12.23;5.72;;;7.20;52.00;;;;;;6195062;28;20073;-74
2021/01/27 01:49:31;;;;;;;14.57;7.15;;;7.20;52.00;;;;;;6177443;28;20701;-74
2021/01/27 01:52:32;;;;;;;17.17;6.68;;;7.10;52.00;;;;;;6193883;28;20479;-74
2021/01/27 01:55:33;;;;;;;11.70;4.80;;;7.10;52.10;;;;;;6185569;28;20038;-75
2021/01/27 01:58:39;;;;;;;11.00;5.85;;;7.10;52.00;;;;;;6187317;28;20040;-74
2021/01/27 02:01:44;;;;;;;11.02;5.72;;;7.00;51.90;;;;;;6195859;28;20038;-74
2021/01/27 02:05:12;;;;;;;11.18;5.55;;;7.00;52.00;;;;;;6192082;28;20432;-73
2021/01/27 02:08:13;;;;;;;14.48;5.07;;;7.00;52.00;;;;;;6194503;28;20040;-74
2021/01/27 02:11:17;;;;;;;14.25;5.97;;;7.00;52.10;;;;;;6195767;28;20042;-74
2021/01/27 02:14:45;;;;;;;12.18;5.13;;;6.90;52.20;;;;;;6191468;28;20031;-74
2021/01/27 02:18:05;;;;;;;12.20;5.25;;;6.90;52.30;;;;;;6206724;28;20053;-73
2021/01/27 02:21:25;;;;;;;8.70;4.10;;;6.90;52.30;;;;;;6195756;28;20054;-73
2021/01/27 02:24:44;;;;;;;10.85;4.25;;;6.80;52.30;;;;;;6194429;28;20054;-74
2021/01/27 02:27:51;;;;;;;11.15;4.88;;;6.90;52.30;;;;;;6189747;28;20120;-75
2021/01/27 02:31:08;;;;;;;10.98;4.25;;;6.90;52.30;;;;;;6204257;28;20030;-74
2021/01/27 02:34:45;;;;;;;9.25;3.95;;;6.90;52.20;;;;;;6200845;28;20031;-75
2021/01/27 02:37:51;;;;;;;8.23;4.18;;;6.90;52.20;;;;;;6228040;28;20065;-74
2021/01/27 02:40:58;;;;;;;13.95;5.18;;;7.00;52.30;;;;;;6192753;28;20042;-75
2021/01/27 02:44:03;;;;;;;13.27;5.05;;;7.00;52.30;;;;;;6190502;28;20030;-74
2021/01/27 02:47:13;;;;;;;13.23;5.75;;;7.10;52.30;;;;;;6186099;28;20386;-74
2021/01/27 02:50:24;;;;;;;14.82;6.25;;;7.10;52.20;;;;;;6193651;28;20399;-75
2021/01/27 02:54:02;;;;;;;13.48;5.40;;;7.10;52.30;;;;;;6206443;28;20031;-75
2021/01/27 02:57:12;;;;;;;15.18;6.63;;;7.10;52.40;;;;;;6190554;28;20045;-75
2021/01/27 03:00:22;;;;;;;12.40;5.25;;;7.10;52.50;;;;;;6183555;28;20054;-75
2021/01/27 03:03:29;;;;;;;14.68;5.95;;;7.10;52.60;;;;;;6179170;28;20046;-74
2021/01/27 03:06:31;;;;;;;14.27;5.55;;;7.10;52.60;;;;;;6155660;28;20114;-75
2021/01/27 03:09:55;;;;;;;10.82;5.13;;;7.00;52.50;;;;;;6150047;28;20112;-74
2021/01/27 03:12:56;;;;;;;16.42;5.88;;;7.00;52.40;;;;;;6193493;28;20050;-74
2021/01/27 03:16:01;;;;;;;10.38;5.20;;;7.00;52.30;;;;;;6194071;28;20372;-73
2021/01/27 03:19:08;;;;;;;11.70;5.78;;;6.90;52.40;;;;;;6151933;28;20102;-74
2021/01/27 03:22:25;;;;;;;14.35;5.57;;;6.90;52.40;;;;;;6155141;28;20038;-74
2021/01/27 03:25:33;;;;;;;10.70;4.80;;;7.00;52.40;;;;;;6169153;28;20031;-74
2021/01/27 03:28:41;;;;;;;13.35;5.70;;;7.00;52.30;;;;;;6165708;28;20082;-74
2021/01/27 03:35:48;;;;;;;12.30;4.60;;;7.10;51.90;;;;;;6187578;28;20062;-74
2021/01/27 03:38:52;;;;;;;9.43;4.80;;;7.00;51.70;;;;;;6177525;28;20034;-74
2021/01/27 03:41:59;;;;;;;10.35;5.20;;;7.00;51.70;;;;;;6156474;28;20046;-74
2021/01/27 03:45:05;;;;;;;9.27;4.50;;;7.00;51.80;;;;;;6198002;28;20034;-74
2021/01/27 03:48:36;;;;;;;9.77;5.68;;;7.10;51.90;;;;;;6165955;28;20039;-74
2021/01/27 03:51:41;;;;;;;9.60;4.60;;;7.10;51.90;;;;;;6206560;28;20038;-74
2021/01/27 03:54:48;;;;;;;10.88;4.03;;;7.10;52.00;;;;;;6222704;28;20038;-75
2021/01/27 03:58:30;;;;;;;8.80;4.95;;;7.10;52.10;;;;;;6189296;28;20035;-74
2021/01/27 04:01:31;;;;;;;11.45;4.55;;;7.00;52.10;;;;;;6076223;29;20044;-75
2021/01/27 04:04:32;;;;;;;10.77;4.57;;;7.00;52.10;;;;;;6063894;29;20043;-75
2021/01/27 04:07:33;;;;;;;10.88;5.50;;;7.00;52.10;;;;;;6083385;29;20528;-74
2021/01/27 04:10:34;;;;;;;6.97;3.97;;;7.00;52.10;;;;;;6063676;29;20119;-75
2021/01/27 04:13:35;;;;;;;12.18;5.28;;;7.00;52.10;;;;;;6077402;29;20033;-74
2021/01/27 04:16:36;;;;;;;11.23;5.00;;;7.00;52.10;;;;;;6079459;29;20173;-75
2021/01/27 04:19:38;;;;;;;9.88;5.28;;;7.00;52.10;;;;;;6078735;29;20041;-75
2021/01/27 04:23:03;;;;;;;11.77;5.03;;;7.10;52.10;;;;;;6077658;29;20522;-75
2021/01/27 04:26:04;;;;;;;10.75;5.43;;;7.10;52.00;;;;;;6079547;29;20095;-75
2021/01/27 04:29:06;;;;;;;12.98;5.38;;;7.00;52.00;;;;;;6069859;29;20045;-75
2021/01/27 04:32:06;;;;;;;10.55;5.35;;;7.00;52.10;;;;;;6063276;29;20045;-73
2021/01/27 04:35:08;;;;;;;11.07;5.68;;;7.00;52.30;;;;;;6137785;28;20127;-73
2021/01/27 04:38:09;;;;;;;10.77;5.18;;;7.00;52.30;;;;;;6204464;28;20037;-74
2021/01/27 04:41:11;;;;;;;15.20;5.22;;;6.90;52.40;;;;;;6204291;28;20061;-74
2021/01/27 04:44:12;;;;;;;12.63;5.32;;;6.90;52.40;;;;;;6222058;28;20064;-74
2021/01/27 04:47:37;;;;;;;11.32;4.85;;;6.90;52.50;;;;;;6223464;28;20044;-76
2021/01/27 04:51:13;;;;;;;12.63;5.60;;;7.00;52.70;;;;;;6181234;28;20034;-76
2021/01/27 04:54:28;;;;;;;11.30;6.07;;;6.90;52.80;;;;;;6143487;28;20027;-74
2021/01/27 04:57:48;;;;;;;14.38;5.20;;;6.90;52.90;;;;;;6155520;28;20497;-74
2021/01/27 05:01:15;;;;;;;12.57;4.60;;;6.80;53.00;;;;;;6154021;28;20068;-75
2021/01/27 05:04:45;;;;;;;11.98;5.75;;;6.80;53.00;;;;;;6146440;28;20045;-73
2021/01/27 05:07:45;;;;;;;;;;;6.80;53.10;;;;;;6143748;28;20045;-73
2021/01/27 05:10:54;;;;;;;12.65;4.78;;;6.80;53.20;;;;;;6148765;28;19915;-73
2021/01/27 05:13:59;;;;;;;14.15;5.45;;;6.80;53.10;;;;;;6182609;28;20034;-74
2021/01/27 05:17:05;;;;;;;12.75;4.75;;;6.80;53.20;;;;;;6153618;28;20110;-75
2021/01/27 05:20:07;;;;;;;13.02;5.57;;;6.80;53.30;;;;;;6154323;28;20039;-75
2021/01/27 05:23:08;;;;;;;14.80;5.45;;;6.80;53.40;;;;;;6152430;28;20122;-75
2021/01/27 05:26:13;;;;;;;11.20;5.55;;;6.70;53.30;;;;;;6149108;28;20357;-74
2021/01/27 05:29:34;;;;;;;13.48;6.05;;;6.80;53.40;;;;;;6160525;28;20037;-74
2021/01/27 05:32:55;;;;;;;9.68;4.88;;;6.70;53.40;;;;;;6171229;28;20127;-75
2021/01/27 05:36:07;;;;;;;11.40;4.88;;;6.70;53.50;;;;;;6195726;28;20484;-74
2021/01/27 05:39:15;;;;;;;10.18;4.78;;;6.70;53.60;;;;;;6195408;28;20026;-74
2021/01/27 05:42:30;;;;;;;15.05;6.10;;;6.70;53.70;;;;;;6179112;28;20031;-73
2021/01/27 05:45:36;;;;;;;15.68;6.55;;;6.70;53.80;;;;;;6178733;28;20058;-74
2021/01/27 05:48:44;;;;;;;12.23;6.65;;;6.70;53.80;;;;;;6178065;28;20058;-74
2021/01/27 05:51:44;;;;;;;14.80;6.10;;;6.70;53.90;;;;;;6180668;28;20118;-75
2021/01/27 05:54:45;;;;;;;13.73;6.10;;;6.70;54.00;;;;;;6186218;28;20034;-75
2021/01/27 05:57:59;;;;;;;12.25;6.20;;;6.70;54.00;;;;;;6179994;28;20046;-75
2021/01/27 06:01:35;;;;;;;13.15;5.80;;;6.60;54.00;;;;;;6202969;28;20057;-75
2021/01/27 06:04:39;;;;;;;14.25;5.00;;;6.50;54.10;;;;;;6199806;28;20084;-74
2021/01/27 06:07:41;;;;;;;11.68;4.85;;;6.50;54.30;;;;;;6187923;28;20030;-74
2021/01/27 06:10:42;;;;;;;11.68;5.85;;;6.40;54.40;;;;;;6190695;28;20029;-75
2021/01/27 06:13:44;;;;;;;12.32;4.60;;;6.40;54.50;;;;;;6206070;28;20042;-74
2021/01/27 06:16:48;;;;;;;11.18;4.90;;;6.40;54.50;;;;;;6209033;28;20033;-75
2021/01/27 06:20:15;;;;;;;13.00;4.88;;;6.40;54.60;;;;;;6210383;28;20037;-76
2021/01/27 06:23:49;;;;;;;13.65;5.25;;;6.40;54.60;;;;;;6202690;28;20034;-74
2021/01/27 06:27:14;;;;;;;18.27;5.93;;;6.40;54.60;;;;;;6204066;28;20072;-74
2021/01/27 06:30:15;;;;;;;18.73;5.00;;;6.40;54.60;;;;;;6186571;28;20038;-74
2021/01/27 06:33:40;;;;;;;13.10;5.53;;;6.50;54.50;;;;;;6219757;28;20483;-74
2021/01/27 06:37:09;;;;;;;13.02;5.68;;;6.60;54.30;;;;;;6218437;28;20467;-75
2021/01/27 06:40:34;;;;;;;15.70;5.38;;;6.60;54.10;;;;;;6203332;28;20187;-75
2021/01/27 06:44:08;;;;;;;10.55;5.43;;;6.70;53.80;;;;;;6218933;28;20064;-75
2021/01/27 06:47:21;;;;;;;12.80;4.88;;;6.70;53.50;;;;;;6203322;28;20069;-74
2021/01/27 06:50:40;;;;;;;18.10;5.25;;;6.70;53.30;;;;;;6200344;28;20480;-74
2021/01/27 06:54:06;;;;;;;16.13;5.63;;;6.80;53.30;;;;;;6219007;28;20058;-74
2021/01/27 06:57:31;;;;;;;11.77;5.07;;;6.90;53.30;;;;;;6201102;28;20042;-74
2021/01/27 07:00:50;;;;;;;10.68;5.28;;;6.90;53.20;;;;;;6217953;28;20371;-75
2021/01/27 07:04:00;;;;;;;;;;;6.90;53.10;;;;;;6209706;28;20324;-75
2021/01/27 07:07:29;;;;;;;9.57;5.55;;;6.90;53.20;;;;;;6200938;28;20008;-75
2021/01/27 07:10:37;;;;;;;17.63;6.40;;;6.90;53.30;;;;;;6205816;28;20026;-76
2021/01/27 07:14:07;;;;;;;12.15;5.95;;;6.90;53.40;;;;;;6223018;28;20026;-74
2021/01/27 07:17:44;;;;;;;21.50;6.05;;;6.90;53.60;;;;;;6203578;28;20117;-74
2021/01/27 07:21:02;;;;;;;10.43;4.97;;;6.90;53.60;;;;;;6221921;28;20038;-75
2021/01/27 07:24:20;;;;;;;10.10;3.90;;;7.00;53.50;;;;;;6205951;28;20036;-75
2021/01/27 07:27:22;;;;;;;14.52;5.80;;;7.00;53.40;;;;;;6222444;28;20257;-74
2021/01/27 07:30:34;;;;;;;12.68;4.95;;;7.10;53.20;;;;;;6223187;28;20054;-74
2021/01/27 07:33:41;;;;;;;14.73;4.70;;;7.10;53.10;;;;;;6223843;28;20124;-75
2021/01/27 07:37:08;;;;;;;11.93;5.18;;;7.10;53.10;;;;;;6203031;28;20026;-75
2021/01/27 07:40:20;;;;;;;9.93;4.80;;;7.10;52.90;;;;;;6204846;28;20052;-75
2021/01/27 07:43:28;;;;;;;9.05;4.30;;;7.10;53.50;;;;;;6196929;28;20057;-75
2021/01/27 07:46:37;;;;;;;17.27;5.07;;;7.10;52.90;;;;;;6208055;28;20487;-75
2021/01/27 07:49:43;;;;;;;14.15;4.35;;;7.00;52.80;;;;;;6222727;28;20034;-75
2021/01/27 07:53:06;;;;;;;12.93;4.45;;;7.10;52.90;;;;;;6206663;28;20044;-74
2021/01/27 07:56:13;;;;;;;10.40;4.93;;;7.10;52.80;;;;;;6203972;28;20481;-76
2021/01/27 07:59:14;;;;;;;12.77;5.20;;;7.20;52.70;;;;;;6218590;28;20051;-76
2021/01/27 08:02:22;;;;;;;8.73;4.22;;;7.20;52.70;;;;;;6216566;28;20030;-75
2021/01/27 08:05:24;;;;;;;11.85;4.22;;;7.20;52.70;;;;;;6190460;28;20041;-74
2021/01/27 08:08:25;;;;;;;10.48;4.10;;;7.30;52.60;;;;;;6213727;28;20511;-75
2021/01/27 08:11:40;;;;;;;8.05;4.00;;;7.40;52.50;;;;;;6188598;28;20105;-78
2021/01/27 08:15:06;;;;;;;12.93;4.78;;;7.40;52.20;;;;;;6183009;28;20116;-75
2021/01/27 08:18:17;;;;;;;11.65;4.18;;;7.50;51.90;;;;;;6179521;28;20064;-74
2021/01/27 08:21:23;;;;;;;14.73;5.18;;;7.40;51.70;;;;;;6184740;28;20121;-75
2021/01/27 08:24:38;;;;;;;10.00;3.83;;;7.40;51.70;;;;;;6204198;28;20069;-76
2021/01/27 08:27:39;;;;;;;9.60;4.18;;;7.30;51.30;;;;;;6170994;28;20356;-75
2021/01/27 08:30:40;;;;;;;11.57;4.63;;;7.40;51.50;;;;;;6179270;28;20038;-76
2021/01/27 08:33:44;;;;;;;17.08;5.05;;;7.40;51.40;;;;;;6189184;28;20444;-74
2021/01/27 08:36:51;;;;;;;9.73;4.50;;;7.40;51.30;;;;;;6201255;28;20022;-74
2021/01/27 08:40:19;;;;;;;10.98;3.67;;;7.50;51.10;;;;;;6177835;28;20027;-74
2021/01/27 08:43:45;;;;;;;13.10;4.53;;;7.50;51.00;;;;;;6173375;28;20070;-74
2021/01/27 08:47:44;;;;;;;10.07;4.10;;;7.60;51.00;;;;;;6197743;28;20038;-75
2021/01/27 08:50:48;;;;;;;31.90;6.28;;;7.70;50.70;;;;;;6018757;29;20038;-74
2021/01/27 08:53:54;;;;;;;13.80;4.78;;;7.80;50.40;;;;;;6017993;29;20034;-75
2021/01/27 08:57:22;;;;;;;14.27;5.20;;;7.80;50.20;;;;;;6018865;29;20078;-74
2021/01/27 09:00:26;;;;;;;35.10;6.13;;;7.90;50.30;;;;;;6016747;29;20369;-74
2021/01/27 09:03:42;;;;;;;11.48;4.32;;;8.00;50.30;;;;;;6017299;29;21336;-74
2021/01/27 09:06:47;;;;;;;12.02;5.38;;;8.00;50.10;;;;;;6018934;29;20034;-74
2021/01/27 09:09:48;;;;;;;19.50;4.85;;;8.20;50.00;;;;;;6018106;29;20056;-74
2021/01/27 09:12:49;;;;;;;9.82;4.03;;;8.20;49.70;;;;;;6010617;29;20392;-75
2021/01/27 09:15:54;;;;;;;23.38;4.57;;;8.30;49.30;;;;;;6021953;29;20068;-76
2021/01/27 09:19:10;;;;;;;10.50;4.07;;;8.30;48.90;;;;;;6016748;29;20046;-75
2021/01/27 09:22:21;;;;;;;8.60;3.30;;;8.40;48.40;;;;;;6020918;29;20054;-75
2021/01/27 09:25:22;;;;;;;8.73;3.40;;;8.40;48.40;;;;;;6060541;28;20044;-76
2021/01/27 09:28:24;;;;;;;18.38;4.88;;;8.40;48.20;;;;;;6179532;28;20030;-74
2021/01/27 09:31:27;;;;;;;18.38;4.43;;;8.40;48.40;;;;;;6199237;28;20046;-75
2021/01/27 09:34:31;;;;;;;48.75;7.45;;;8.40;48.50;;;;;;6175846;28;20496;-75
2021/01/27 09:37:34;;;;;;;42.67;8.20;;;8.40;48.60;;;;;;6200531;28;20038;-76
2021/01/27 09:40:39;;;;;;;33.00;7.13;;;8.50;48.70;;;;;;6198100;28;20038;-74
2021/01/27 09:43:44;;;;;;;31.35;6.50;;;8.50;48.60;;;;;;6176214;28;20034;-74
2021/01/27 09:46:46;;;;;;;17.73;5.90;;;8.50;48.70;;;;;;6182316;28;20463;-76
2021/01/27 09:49:50;;;;;;;15.00;4.68;;;8.50;48.90;;;;;;6202423;28;20117;-74
2021/01/27 09:52:56;;;;;;;29.63;5.40;;;8.50;48.90;;;;;;6206358;28;20101;-76
2021/01/27 09:55:58;;;;;;;9.30;4.35;;;8.50;48.70;;;;;;6170319;28;20034;-74
2021/01/27 09:59:01;;;;;;;12.80;5.35;;;8.50;48.60;;;;;;6179151;28;20077;-75
2021/01/27 10:02:02;;;;;;;9.90;5.00;;;8.50;48.60;;;;;;6177100;28;20103;-75
2021/01/27 10:05:35;;;;;;;21.05;6.53;;;8.50;48.60;;;;;;6177441;28;20058;-74
2021/01/27 10:08:41;;;;;;;31.17;5.70;;;8.60;48.60;;;;;;6162604;28;20049;-75
2021/01/27 10:11:42;;;;;;;14.63;5.13;;;8.60;48.20;;;;;;6200013;28;20053;-73
2021/01/27 10:14:43;;;;;;;8.63;3.47;;;8.70;47.90;;;;;;6203430;28;20368;-75
2021/01/27 10:17:51;;;;;;;10.52;4.20;;;8.70;47.50;;;;;;6193991;28;20034;-75
2021/01/27 10:21:00;;;;;;;24.83;7.47;;;8.80;47.40;;;;;;6172041;28;20037;-74
2021/01/27 10:24:02;;;;;;;16.08;4.75;;;8.80;47.40;;;;;;6180017;28;20037;-75
2021/01/27 10:27:03;;;;;;;29.17;8.77;;;8.90;47.50;;;;;;6202142;28;20053;-73
2021/01/27 10:30:24;;;;;;;14.63;5.32;;;9.00;47.40;;;;;;6200584;28;20034;-76
2021/01/27 10:33:51;;;;;;;45.08;7.88;;;9.10;47.30;;;;;;6202567;28;20129;-74
2021/01/27 10:36:52;;;;;;;14.18;6.93;;;9.20;47.30;;;;;;6158976;28;20367;-74
2021/01/27 10:40:08;;;;;;;24.02;9.75;;;9.20;47.00;;;;;;6204460;28;20127;-75
2021/01/27 10:43:32;;;;;;;21.88;9.02;;;9.20;47.00;;;;;;6188948;28;20416;-75
2021/01/27 10:46:34;;;;;;;18.33;6.28;;;9.20;46.70;;;;;;6098260;29;20044;-74
2021/01/27 10:49:42;;;;;;;10.25;3.42;;;9.20;46.60;;;;;;6098687;29;20106;-74
2021/01/27 10:52:43;;;;;;;11.70;4.65;;;9.20;46.50;;;;;;6113079;29;20107;-74
2021/01/27 10:55:47;;;;;;;15.60;6.50;;;9.30;46.00;;;;;;6086624;29;20039;-74
2021/01/27 10:58:48;;;;;;;18.73;6.93;;;9.30;45.80;;;;;;6099250;29;20028;-74
2021/01/27 11:01:49;;;;;;;21.95;9.82;;;9.30;45.60;;;;;;6097961;29;20393;-75
2021/01/27 11:04:49;;;;;;;13.00;7.07;;;9.20;45.70;;;;;;6097042;29;20039;-74
2021/01/27 11:07:50;;;;;;;10.27;4.47;;;9.30;45.90;;;;;;6093692;29;20033;-77
2021/01/27 11:10:53;;;;;;;12.40;4.82;;;9.30;45.80;;;;;;6102344;29;20362;-75
2021/01/27 11:13:54;;;;;;;13.10;5.85;;;9.40;45.90;;;;;;6097542;29;20036;-74
2021/01/27 11:16:55;;;;;;;28.35;11.93;;;9.40;45.80;;;;;;6097825;29;20040;-74
2021/01/27 11:19:56;;;;;;;18.65;8.82;;;9.40;45.90;;;;;;6101104;29;20119;-75
2021/01/27 11:22:57;;;;;;;30.25;10.10;;;9.50;45.90;;;;;;6150786;28;20030;-75
2021/01/27 11:25:58;;;;;;;15.48;5.07;;;9.50;45.90;;;;;;6161278;28;20041;-75
2021/01/27 11:29:01;;;;;;;12.20;4.90;;;9.60;46.00;;;;;;6208482;28;20448;-75
2021/01/27 11:32:02;;;;;;;22.90;8.65;;;9.80;45.90;;;;;;6201695;28;20491;-75
2021/01/27 11:35:04;;;;;;;27.30;9.90;;;9.90;45.80;;;;;;6200490;28;20051;-77
2021/01/27 11:38:04;;;;;;;16.85;5.63;;;10.10;45.60;;;;;;6210251;28;20334;-74
2021/01/27 11:41:05;;;;;;;10.45;4.50;;;10.10;45.20;;;;;;6174018;28;20049;-74
2021/01/27 11:44:06;;;;;;;9.48;4.20;;;10.20;45.10;;;;;;6144937;28;20414;-75
2021/01/27 11:47:07;;;;;;;22.50;7.07;;;10.20;44.60;;;;;;6192643;28;20045;-74
2021/01/27 11:50:09;;;;;;;28.42;9.43;;;10.20;44.00;;;;;;6178339;28;20053;-77
2021/01/27 11:53:10;;;;;;;18.70;7.30;;;10.20;44.10;;;;;;6179672;28;20042;-75
2021/01/27 11:56:12;;;;;;;14.38;5.45;;;10.30;44.40;;;;;;6180169;28;20038;-75
2021/01/27 11:59:13;;;;;;;13.65;5.93;;;10.30;44.10;;;;;;6185061;28;20043;-75
2021/01/27 12:02:13;;;;;;;11.32;4.22;;;10.40;44.00;;;;;;6193773;28;20037;-75
2021/01/27 12:05:17;;;;;;;12.25;4.85;;;10.50;43.80;;;;;;6202766;28;20082;-75
2021/01/27 12:08:18;;;;;;;29.48;7.45;;;10.60;43.90;;;;;;6168645;28;20030;-75
2021/01/27 12:11:19;;;;;;;9.13;3.90;;;10.60;43.70;;;;;;6203808;28;20133;-74
2021/01/27 12:14:20;;;;;;;9.57;4.65;;;10.60;43.60;;;;;;6205127;28;20073;-76
2021/01/27 12:17:21;;;;;;;7.82;3.45;;;10.60;43.40;;;;;;6162975;28;20129;-75
2021/01/27 12:20:22;;;;;;;8.93;3.55;;;10.50;43.20;;;;;;6189943;28;20038;-75
2021/01/27 12:23:23;;;;;;;12.65;5.43;;;10.40;43.10;;;;;;6179937;28;20068;-76
2021/01/27 12:26:24;;;;;;;21.70;5.05;;;10.40;43.30;;;;;;6182150;28;20046;-75
2021/01/27 12:29:25;;;;;;;13.32;6.50;;;10.30;43.20;;;;;;6178464;28;20030;-74
2021/01/27 12:32:26;;;;;;;17.10;5.45;;;10.30;43.30;;;;;;6159505;28;20034;-74
2021/01/27 12:35:27;;;;;;;32.10;9.73;;;10.20;43.40;;;;;;6183919;28;20046;-76
2021/01/27 12:38:28;;;;;;;20.95;6.43;;;10.20;43.10;;;;;;6165894;28;20039;-75
2021/01/27 12:41:28;;;;;;;17.75;5.03;;;10.20;43.10;;;;;;6191543;28;20158;-75
2021/01/27 12:44:29;;;;;;;7.32;3.80;;;10.20;42.90;;;;;;6190667;28;20467;-76
2021/01/27 12:47:30;;;;;;;6.00;3.10;;;10.20;43.20;;;;;;6188163;28;20173;-75
2021/01/27 12:50:31;;;;;;;6.82;3.33;;;10.20;43.20;;;;;;6200117;28;20034;-75
2021/01/27 12:53:32;;;;;;;13.98;4.22;;;10.20;42.70;;;;;;6198711;28;20157;-75
2021/01/27 12:56:33;;;;;;;7.25;3.20;;;10.20;42.30;;;;;;6182746;28;20050;-76
2021/01/27 12:59:34;;;;;;;8.10;3.10;;;10.20;42.40;;;;;;6177019;28;20061;-75
2021/01/27 13:02:35;;;;;;;9.98;3.22;;;10.10;42.50;;;;;;6161500;28;20051;-75
2021/01/27 13:05:37;;;;;;;54.88;7.30;;;10.10;42.50;;;;;;6182520;28;20238;-75
2021/01/27 13:08:38;;;;;;;15.32;5.53;;;10.00;42.70;;;;;;6182074;28;20046;-75
2021/01/27 13:11:39;;;;;;;9.45;4.25;;;10.10;43.70;;;;;;6183460;28;20046;-75
2021/01/27 13:14:40;;;;;;;11.40;4.85;;;10.20;43.40;;;;;;6161934;28;20038;-76
2021/01/27 13:17:41;;;;;;;10.55;4.43;;;10.20;43.70;;;;;;6178168;28;20039;-75
2021/01/27 13:20:42;;;;;;;11.30;4.35;;;10.20;43.90;;;;;;6175908;28;20050;-75
2021/01/27 13:23:47;;;;;;;13.73;4.35;;;10.30;44.10;;;;;;6190024;28;20042;-74
2021/01/27 13:26:48;;;;;;;11.05;4.72;;;10.30;44.50;;;;;;6178045;28;20031;-76
2021/01/27 13:29:49;;;;;;;17.40;6.88;;;10.20;44.40;;;;;;6201219;28;20030;-76
2021/01/27 13:32:51;;;;;;;10.25;4.57;;;10.20;44.60;;;;;;6176854;28;20052;-75
2021/01/27 13:35:52;;;;;;;17.13;5.60;;;10.20;44.60;;;;;;6173978;28;20042;-74
2021/01/27 13:38:53;;;;;;;32.40;6.57;;;10.20;44.60;;;;;;6171925;28;20460;-74
2021/01/27 13:41:54;;;;;;;16.25;5.55;;;10.20;44.70;;;;;;6182123;28;20121;-76
2021/01/27 13:44:55;;;;;;;44.38;7.85;;;10.20;44.80;;;;;;6174070;28;20444;-75
2021/01/27 13:47:58;;;;;;;9.80;4.40;;;10.30;45.00;;;;;;6206195;28;20030;-74
2021/01/27 13:50:59;;;;;;;16.83;4.70;;;10.30;44.80;;;;;;6190774;28;20050;-75
2021/01/27 13:54:00;;;;;;;14.90;5.22;;;10.20;44.70;;;;;;6201265;28;20050;-75
2021/01/27 13:57:01;;;;;;;16.10;6.13;;;10.20;44.80;;;;;;6179331;28;20046;-75
2021/01/27 14:00:07;;;;;;;34.67;7.10;;;10.20;45.00;;;;;;6196484;28;20030;-74
2021/01/27 14:03:08;;;;;;;18.40;5.78;;;10.20;45.10;;;;;;6200708;28;20060;-75
2021/01/27 14:06:09;;;;;;;39.00;6.63;;;10.20;45.20;;;;;;6201723;28;20026;-75
2021/01/27 14:09:10;;;;;;;21.77;5.20;;;10.30;45.30;;;;;;6202288;28;20498;-76
2021/01/27 14:12:11;;;;;;;14.82;5.25;;;10.40;45.10;;;;;;6201764;28;20124;-75
2021/01/27 14:15:13;;;;;;;31.23;6.72;;;10.50;45.00;;;;;;6197618;28;20030;-75
2021/01/27 14:18:14;;;;;;;16.40;4.13;;;10.50;44.90;;;;;;6199428;28;20033;-75
2021/01/27 14:21:15;;;;;;;11.32;4.35;;;10.50;44.90;;;;;;6186100;28;20057;-75
2021/01/27 14:24:16;;;;;;;7.30;4.00;;;10.40;44.80;;;;;;6216743;28;20116;-75
2021/01/27 14:27:17;;;;;;;19.65;5.13;;;10.40;44.80;;;;;;6203156;28;20041;-75
2021/01/27 14:30:25;;;;;;;35.33;6.53;;;10.40;44.90;;;;;;6184059;28;20041;-75
2021/01/27 14:33:26;;;;;;;21.17;5.75;;;10.40;44.70;;;;;;6200839;28;20128;-75
2021/01/27 14:36:26;;;;;;;17.50;5.35;;;10.40;44.50;;;;;;6200373;28;20106;-74
2021/01/27 14:39:27;;;;;;;14.10;5.43;;;10.40;44.60;;;;;;6217352;28;20040;-74
2021/01/27 14:42:28;;;;;;;10.00;4.57;;;10.40;44.70;;;;;;6198469;28;20327;-76
2021/01/27 14:45:29;;;;;;;16.45;5.30;;;10.40;44.60;;;;;;6200936;28;20056;-76
2021/01/27 14:48:30;;;;;;;32.53;7.60;;;10.50;44.60;;;;;;6217877;28;20092;-74
2021/01/27 14:51:31;;;;;;;42.50;6.13;;;10.50;44.70;;;;;;6198764;28;20042;-75
2021/01/27 14:54:39;;;;;;;17.88;4.68;;;10.50;44.80;;;;;;6197515;28;20167;-75
2021/01/27 14:57:40;;;;;;;13.80;4.72;;;10.50;44.90;;;;;;6196509;28;20034;-75
2021/01/27 15:00:41;;;;;;;17.08;5.50;;;10.40;44.90;;;;;;6199164;28;20116;-76
2021/01/27 15:03:42;;;;;;;17.10;5.30;;;10.40;45.10;;;;;;6215602;28;20489;-76
2021/01/27 15:06:43;;;;;;;11.30;5.53;;;10.40;45.80;;;;;;6175280;28;20027;-76
2021/01/27 15:09:44;;;;;;;12.63;5.13;;;10.30;45.20;;;;;;6193734;28;20517;-75
2021/01/27 15:12:45;;;;;;;9.77;4.63;;;10.30;45.10;;;;;;6198623;28;20038;-75
2021/01/27 15:15:46;;;;;;;12.65;5.82;;;10.20;45.10;;;;;;6197469;28;20483;-75
2021/01/27 15:18:47;;;;;;;17.08;5.80;;;10.20;45.00;;;;;;6212527;28;20096;-74
2021/01/27 15:21:48;;;;;;;14.25;4.53;;;10.20;45.00;;;;;;6218219;28;20467;-74
2021/01/27 15:24:49;;;;;;;9.65;4.53;;;10.20;45.00;;;;;;6183114;28;20045;-76
2021/01/27 15:27:50;;;;;;;11.13;4.85;;;10.20;45.10;;;;;;6215560;28;20053;-75
2021/01/27 15:30:51;;;;;;;14.80;4.20;;;10.20;45.40;;;;;;6187038;28;20048;-76
2021/01/27 15:33:52;;;;;;;19.20;4.47;;;10.20;45.50;;;;;;6203575;28;20041;-75
2021/01/27 15:36:54;;;;;;;9.73;4.38;;;10.10;45.60;;;;;;6188743;28;20040;-75
2021/01/27 15:39:55;;;;;;;11.63;5.15;;;10.20;45.80;;;;;;6207677;28;20483;-74
2021/01/27 15:42:58;;;;;;;9.35;3.60;;;10.20;46.00;;;;;;6201907;28;20049;-75
2021/01/27 15:45:59;;;;;;;8.85;3.42;;;10.10;45.70;;;;;;6222931;28;20068;-75
2021/01/27 15:49:00;;;;;;;12.50;3.60;;;10.10;45.50;;;;;;6201782;28;20120;-76
2021/01/27 15:52:02;;;;;;;11.73;4.32;;;10.10;45.50;;;;;;6206230;28;20141;-74
2021/01/27 15:55:03;;;;;;;6.97;3.13;;;10.10;45.70;;;;;;6190674;28;20048;-74
2021/01/27 15:58:05;;;;;;;10.82;4.65;;;10.00;45.80;;;;;;6206638;28;20065;-74
2021/01/27 16:01:06;;;;;;;23.80;9.10;;;10.10;46.00;;;;;;6220973;28;20100;-76
2021/01/27 16:04:10;;;;;;;11.32;4.03;;;9.90;46.20;;;;;;6205413;28;20498;-75
2021/01/27 16:07:11;;;;;;;9.52;3.90;;;9.90;46.40;;;;;;6222808;28;20049;-74
2021/01/27 16:10:15;;;;;;;9.13;4.75;;;9.90;46.80;;;;;;6223867;28;20039;-75
2021/01/27 16:13:17;;;;;;;17.88;6.93;;;9.90;47.20;;;;;;6194977;28;20038;-74